Valmy, Nevada
Current Conditions -  °F | °C
As of 12:56 PM on Sunday 23 Nov 2014 (Local Time) from KWMC Reporting Station
Clear Clear  
Wind Chill: 39°   Ceiling: Unl
Heat Index: 43°   Visibility: 10mi
Dew Point: 25°   Wind: 6mph
Humidity: 49%   Direction: NA
Pressure: 30.32"   Gusts: NA
Location:  40.79°N, 117.13°W
Report Text: KWMC 232056Z AUTO VRB05KT 10SM CLR 06/M04 A3032 RMK AO2 SLP275 T00611039 58019
Loading
Personal Weather Stations






























Interactive Weather Map New forecast layout! Learn more

10-Day Weather Forecast

Advertisements
Track Severe Weather on mobile